createdAt,value
2018-11-28T00:00:10.675Z,86.30
2018-11-28T00:02:39.152Z,86.20
2018-11-28T00:05:10.895Z,86.20
2018-11-28T00:07:39.349Z,86.20
2018-11-28T00:10:12.780Z,86.20
2018-11-28T00:12:41.381Z,86.30
2018-11-28T00:15:12.000Z,86.40
2018-11-28T00:17:40.476Z,86.10
2018-11-28T00:20:13.239Z,85.70
2018-11-28T00:22:41.928Z,86.30
2018-11-28T00:25:11.281Z,85.70
2018-11-28T00:27:39.714Z,85.50
2018-11-28T00:30:11.150Z,85.30
2018-11-28T00:32:39.806Z,85.00
2018-11-28T00:35:10.627Z,84.90
2018-11-28T00:37:39.112Z,84.30
2018-11-28T00:40:09.355Z,84.70
2018-11-28T00:42:38.310Z,84.90
2018-11-28T00:45:10.552Z,84.90
2018-11-28T00:47:39.193Z,84.20
2018-11-28T00:50:12.525Z,84.60
2018-11-28T00:52:40.818Z,83.50
2018-11-28T00:55:12.168Z,83.60
2018-11-28T00:57:40.608Z,83.90
2018-11-28T01:00:11.363Z,84.00
2018-11-28T01:02:39.706Z,84.10
2018-11-28T01:05:09.567Z,83.40
2018-11-28T01:07:38.020Z,83.40
2018-11-28T01:10:09.702Z,83.50
2018-11-28T01:12:38.067Z,83.70
2018-11-28T01:15:08.364Z,83.60
2018-11-28T01:17:36.746Z,83.40
2018-11-28T01:20:06.808Z,83.30
2018-11-28T01:22:35.253Z,83.60
2018-11-28T01:25:03.695Z,83.70
2018-11-28T01:27:32.366Z,83.70
2018-11-28T01:30:00.727Z,82.80
2018-11-28T01:32:29.139Z,82.70
2018-11-28T01:34:57.453Z,83.30
2018-11-28T01:37:25.833Z,83.80
2018-11-28T01:39:54.254Z,83.40
2018-11-28T01:42:22.598Z,83.50
2018-11-28T01:44:50.895Z,84.20
2018-11-28T01:47:19.367Z,84.70
2018-11-28T01:49:47.900Z,84.70
2018-11-28T01:52:16.894Z,84.20
2018-11-28T01:54:45.276Z,84.50
2018-11-28T01:57:13.694Z,84.80
2018-11-28T01:59:42.009Z,84.90
2018-11-28T02:02:10.722Z,84.30
2018-11-28T02:04:39.101Z,84.60
2018-11-28T02:07:07.554Z,84.80
2018-11-28T02:09:35.957Z,84.60
2018-11-28T02:12:04.624Z,84.60
2018-11-28T02:14:32.979Z,84.70
2018-11-28T02:17:01.337Z,85.60
2018-11-28T02:19:29.723Z,85.30
2018-11-28T02:21:58.073Z,85.70
2018-11-28T02:24:26.413Z,85.80
2018-11-28T02:26:54.812Z,85.50
2018-11-28T02:29:24.329Z,84.30
2018-11-28T02:31:51.612Z,83.10
2018-11-28T02:34:19.950Z,81.50
2018-11-28T02:36:48.304Z,81.30
2018-11-28T02:39:16.641Z,81.40
2018-11-28T02:41:45.003Z,80.80
2018-11-28T02:44:13.350Z,80.70
2018-11-28T02:46:41.712Z,81.30
2018-11-28T02:49:10.053Z,81.30
2018-11-28T02:51:38.403Z,82.00
2018-11-28T02:54:07.182Z,83.40
2018-11-28T02:56:35.738Z,82.80
2018-11-28T02:59:04.201Z,82.50
2018-11-28T03:01:32.564Z,82.60
2018-11-28T03:04:01.032Z,83.00
2018-11-28T03:06:29.364Z,82.50
2018-11-28T03:08:57.705Z,82.80
2018-11-28T03:11:26.036Z,83.30
2018-11-28T03:13:54.391Z,83.20
2018-11-28T03:16:22.759Z,83.40
2018-11-28T03:18:51.174Z,83.70
2018-11-28T03:21:19.446Z,84.10
2018-11-28T03:23:47.825Z,84.20
2018-11-28T03:26:16.273Z,83.80
2018-11-28T03:28:44.719Z,84.10
2018-11-28T03:31:13.065Z,84.10
2018-11-28T03:33:41.434Z,84.10
2018-11-28T03:36:09.769Z,83.90
2018-11-28T03:38:38.133Z,83.00
2018-11-28T03:41:06.479Z,83.00
2018-11-28T03:43:34.920Z,83.20
2018-11-28T03:46:04.405Z,82.80
2018-11-28T03:48:32.826Z,82.80
2018-11-28T03:51:01.169Z,82.60
2018-11-28T03:53:29.574Z,82.50
2018-11-28T03:55:57.920Z,82.60
2018-11-28T03:58:26.281Z,83.00
2018-11-28T04:00:54.755Z,82.40
2018-11-28T04:03:23.662Z,82.40
2018-11-28T04:05:52.076Z,81.60
2018-11-28T04:08:20.460Z,81.50
2018-11-28T04:10:48.920Z,81.40
2018-11-28T04:13:17.245Z,81.70
2018-11-28T04:15:45.593Z,82.10
2018-11-28T04:18:14.985Z,82.10
2018-11-28T04:20:43.325Z,81.70
2018-11-28T04:23:11.833Z,81.50
2018-11-28T04:25:40.179Z,82.60
2018-11-28T04:28:08.567Z,82.00
2018-11-28T04:30:36.862Z,82.00
2018-11-28T04:33:05.379Z,81.60
2018-11-28T04:35:33.730Z,81.90
2018-11-28T04:38:03.276Z,81.90
2018-11-28T04:40:31.638Z,82.00
2018-11-28T04:42:59.956Z,81.90
2018-11-28T04:45:28.333Z,81.80
2018-11-28T04:47:56.728Z,82.10
2018-11-28T04:50:25.031Z,82.50
2018-11-28T04:52:54.648Z,83.10
2018-11-28T04:55:22.996Z,83.50
2018-11-28T04:57:51.289Z,83.00
2018-11-28T05:00:24.670Z,83.50
2018-11-28T05:02:54.190Z,83.10
2018-11-28T05:05:22.506Z,82.70
2018-11-28T05:07:52.912Z,82.70
2018-11-28T05:10:24.041Z,83.10
2018-11-28T05:12:53.075Z,84.00
2018-11-28T05:15:22.356Z,83.10
2018-11-28T05:17:51.481Z,82.40
2018-11-28T05:20:20.998Z,82.30
2018-11-28T05:22:49.658Z,82.00
2018-11-28T05:25:21.279Z,81.80
2018-11-28T05:27:50.660Z,82.10
2018-11-28T05:30:20.762Z,82.10
2018-11-28T05:32:49.239Z,82.20
2018-11-28T05:35:18.744Z,81.90
2018-11-28T05:37:47.225Z,81.80
2018-11-28T05:40:20.455Z,81.80
2018-11-28T05:42:48.841Z,82.00
2018-11-28T05:45:17.335Z,82.30
2018-11-28T05:47:45.990Z,82.30
2018-11-28T05:50:18.794Z,82.40
2018-11-28T05:52:47.151Z,82.40
2018-11-28T05:55:16.309Z,82.80
2018-11-28T05:57:44.868Z,83.10
2018-11-28T06:00:19.577Z,83.30
2018-11-28T06:02:55.617Z,82.90
2018-11-28T06:05:24.063Z,83.20
2018-11-28T06:07:52.435Z,83.20
2018-11-28T06:10:21.054Z,83.60
2018-11-28T06:12:49.623Z,83.30
2018-11-28T06:15:17.969Z,83.30
2018-11-28T06:17:46.488Z,83.60
2018-11-28T06:20:15.431Z,84.10
2018-11-28T06:22:43.814Z,84.60
2018-11-28T06:25:16.178Z,84.70
2018-11-28T06:27:42.524Z,84.70
2018-11-28T06:30:16.954Z,84.70
2018-11-28T06:32:51.007Z,85.40
2018-11-28T06:35:14.192Z,85.60
2018-11-28T06:37:42.697Z,86.00
2018-11-28T06:40:15.058Z,86.10
2018-11-28T06:42:44.216Z,87.00
2018-11-28T06:45:15.781Z,87.00
2018-11-28T06:47:44.134Z,86.70
2018-11-28T06:50:14.452Z,87.00
2018-11-28T06:52:43.670Z,87.10
2018-11-28T06:55:13.242Z,87.20
2018-11-28T06:57:41.634Z,86.80
2018-11-28T07:00:18.121Z,86.50
2018-11-28T07:02:47.141Z,86.50
2018-11-28T07:05:15.576Z,86.60
2018-11-28T07:07:44.005Z,85.60
2018-11-28T07:10:13.697Z,85.00
2018-11-28T07:12:42.902Z,84.80
2018-11-28T07:15:13.302Z,84.90
2018-11-28T07:17:42.048Z,85.20
2018-11-28T07:20:14.353Z,85.00
2018-11-28T07:22:42.816Z,85.10
2018-11-28T07:25:14.056Z,85.00
2018-11-28T07:27:45.024Z,84.30
2018-11-28T07:30:17.261Z,84.30
2018-11-28T07:32:45.849Z,84.60
2018-11-28T07:35:15.337Z,84.80
2018-11-28T07:37:44.174Z,84.60
2018-11-28T07:40:18.408Z,84.50
2018-11-28T07:43:02.409Z,84.50
2018-11-28T07:45:32.799Z,84.40
2018-11-28T07:48:01.270Z,84.10
2018-11-28T07:50:29.574Z,84.10
2018-11-28T07:52:58.401Z,84.10
2018-11-28T07:55:27.314Z,84.70
2018-11-28T07:57:56.257Z,84.30
2018-11-28T08:00:24.870Z,84.50
2018-11-28T08:02:53.371Z,84.20
2018-11-28T08:05:22.061Z,84.40
2018-11-28T08:07:50.401Z,84.00
2018-11-28T08:10:21.880Z,84.00
2018-11-28T08:12:51.435Z,83.80
2018-11-28T08:15:19.837Z,83.70
2018-11-28T08:17:48.453Z,83.60
2018-11-28T08:20:17.362Z,83.60
2018-11-28T08:22:45.800Z,83.30
2018-11-28T08:25:17.356Z,82.10
2018-11-28T08:27:47.329Z,82.00
2018-11-28T08:30:20.101Z,82.40
2018-11-28T08:32:48.583Z,82.80
2018-11-28T08:35:17.356Z,82.90
2018-11-28T08:37:45.868Z,83.10
2018-11-28T08:40:19.811Z,82.80
2018-11-28T08:42:48.414Z,82.50
2018-11-28T08:45:18.464Z,82.80
2018-11-28T08:47:48.573Z,82.80
2018-11-28T08:50:18.523Z,82.80
2018-11-28T08:52:50.391Z,83.50
2018-11-28T08:55:19.068Z,83.00
2018-11-28T08:57:48.616Z,83.40
2018-11-28T09:00:21.088Z,83.40
2018-11-28T09:02:56.541Z,83.20
2018-11-28T09:05:25.181Z,83.50
2018-11-28T09:07:53.700Z,83.60
2018-11-28T09:10:22.311Z,83.80
2018-11-28T09:12:51.210Z,83.60
2018-11-28T09:15:26.918Z,83.00
2018-11-28T09:17:55.760Z,83.00
2018-11-28T09:20:25.133Z,83.10
2018-11-28T09:22:56.173Z,83.40
2018-11-28T09:28:08.939Z,83.50
2018-11-28T09:30:37.563Z,82.50
2018-11-28T09:33:06.488Z,82.50
2018-11-28T09:35:34.871Z,82.60
2018-11-28T09:38:10.297Z,82.60
2018-11-28T09:40:38.654Z,82.30
2018-11-28T09:43:07.162Z,82.10
2018-11-28T09:45:36.776Z,81.50
2018-11-28T09:48:05.360Z,81.80
2018-11-28T09:50:35.754Z,81.80
2018-11-28T09:53:04.201Z,82.00
2018-11-28T09:55:33.889Z,82.00
2018-11-28T09:58:03.055Z,82.50
2018-11-28T10:00:32.774Z,82.20
2018-11-28T10:03:02.169Z,80.90
2018-11-28T10:05:35.036Z,80.20
2018-11-28T10:08:03.916Z,80.40
2018-11-28T10:10:32.883Z,80.80
2018-11-28T10:13:01.300Z,80.40
2018-11-28T10:15:35.278Z,80.40
2018-11-28T10:18:00.994Z,79.30
2018-11-28T10:20:29.501Z,80.10
2018-11-28T10:22:58.832Z,79.90
2018-11-28T10:25:27.470Z,80.40
2018-11-28T10:28:05.400Z,80.40
2018-11-28T10:30:36.281Z,79.80
2018-11-28T10:33:15.193Z,79.20
2018-11-28T10:35:43.865Z,78.80
2018-11-28T10:38:13.890Z,78.60
2018-11-28T10:40:42.855Z,78.40
2018-11-28T10:43:11.698Z,78.20
2018-11-28T10:45:40.931Z,78.20
2018-11-28T10:48:15.397Z,78.50
2018-11-28T10:50:45.342Z,79.30
2018-11-28T10:53:15.641Z,79.60
2018-11-28T10:55:45.438Z,79.50
2018-11-28T10:58:14.495Z,79.60
2018-11-28T11:00:48.714Z,79.50
2018-11-28T11:03:23.341Z,79.20
2018-11-28T11:05:58.313Z,78.50
2018-11-28T11:08:28.716Z,78.40
2018-11-28T11:11:03.853Z,78.60
2018-11-28T11:13:38.114Z,78.50
2018-11-28T11:16:07.969Z,78.80
2018-11-28T11:18:38.919Z,78.80
2018-11-28T11:21:08.126Z,78.70
2018-11-28T11:23:37.579Z,78.00
2018-11-28T11:26:06.499Z,77.50
2018-11-28T11:28:39.432Z,77.70
2018-11-28T11:31:09.045Z,77.90
2018-11-28T11:33:38.377Z,77.50
2018-11-28T11:36:09.123Z,77.00
2018-11-28T11:38:38.680Z,77.20
2018-11-28T11:41:07.402Z,77.10
2018-11-28T11:43:36.239Z,76.90
2018-11-28T11:46:05.720Z,77.00
2018-11-28T11:54:28.066Z,75.60
2018-11-28T11:56:58.898Z,75.50
2018-11-28T11:59:27.894Z,75.90
2018-11-28T12:01:57.072Z,76.60
2018-11-28T12:04:25.408Z,76.90
2018-11-28T12:06:54.963Z,77.20
2018-11-28T12:09:24.149Z,76.90
2018-11-28T12:11:53.542Z,77.00
2018-11-28T12:14:22.013Z,76.60
2018-11-28T12:16:50.539Z,76.70
2018-11-28T12:19:20.188Z,76.80
2018-11-28T12:21:48.590Z,76.90
2018-11-28T12:24:17.171Z,77.30
2018-11-28T12:26:45.818Z,77.30
2018-11-28T12:29:15.402Z,78.10
2018-11-28T12:31:45.856Z,78.40
2018-11-28T12:34:14.857Z,78.40
2018-11-28T12:36:44.319Z,78.20
2018-11-28T12:39:14.140Z,76.80
2018-11-28T12:41:43.087Z,76.80
2018-11-28T12:44:12.621Z,77.20
2018-11-28T12:46:41.818Z,77.50
2018-11-28T12:49:11.134Z,77.30
2018-11-28T12:51:40.399Z,77.50
2018-11-28T12:54:09.512Z,77.70
2018-11-28T12:56:38.860Z,77.00
2018-11-28T12:59:07.983Z,76.40
2018-11-28T13:01:37.157Z,76.40
2018-11-28T13:04:06.975Z,76.40
2018-11-28T13:09:17.966Z,76.10
2018-11-28T13:11:46.293Z,77.10
2018-11-28T13:14:14.857Z,76.70
2018-11-28T13:16:44.687Z,77.00
2018-11-28T13:19:13.895Z,77.00
2018-11-28T13:21:43.094Z,77.10
2018-11-28T13:24:12.394Z,77.30
2018-11-28T13:26:41.433Z,77.80
2018-11-28T13:29:12.053Z,78.10
2018-11-28T13:31:43.417Z,78.30
2018-11-28T13:34:12.739Z,78.70
2018-11-28T13:36:41.942Z,78.60
2018-11-28T13:39:11.290Z,78.60
2018-11-28T13:41:39.650Z,78.40
2018-11-28T13:44:08.007Z,79.20
2018-11-28T13:46:36.365Z,78.90
2018-11-28T13:49:04.987Z,78.70
2018-11-28T13:51:33.570Z,79.50
2018-11-28T13:54:20.547Z,79.20
2018-11-28T13:56:58.289Z,79.50
2018-11-28T13:58:59.889Z,79.50
2018-11-28T14:01:28.422Z,79.20
2018-11-28T14:03:56.754Z,79.00
2018-11-28T14:06:25.195Z,80.10
2018-11-28T14:08:55.309Z,79.00
2018-11-28T14:11:23.644Z,79.90
2018-11-28T14:13:52.113Z,80.10
2018-11-28T14:16:21.395Z,80.00
2018-11-28T14:18:49.889Z,80.30
2018-11-28T14:21:18.464Z,80.70
2018-11-28T14:23:46.935Z,80.70
2018-11-28T14:26:15.388Z,80.80
2018-11-28T14:28:43.958Z,81.00
2018-11-28T14:31:12.425Z,80.70
2018-11-28T14:33:41.047Z,80.30
2018-11-28T14:36:09.427Z,80.40
2018-11-28T14:38:38.309Z,80.20
2018-11-28T14:41:06.947Z,78.20
2018-11-28T14:43:36.446Z,78.00
2018-11-28T14:46:04.945Z,78.40
2018-11-28T14:48:33.321Z,79.20
2018-11-28T14:51:01.819Z,79.20
2018-11-28T14:53:30.363Z,79.50
2018-11-28T14:55:59.022Z,79.40
2018-11-28T14:58:27.660Z,79.00
2018-11-28T15:00:55.881Z,79.90
2018-11-28T15:03:24.689Z,80.50
2018-11-28T15:06:02.836Z,80.60
2018-11-28T15:08:31.880Z,80.60
2018-11-28T15:11:09.000Z,80.60
2018-11-28T15:13:37.817Z,80.80
2018-11-28T15:16:06.715Z,80.30
2018-11-28T15:18:35.185Z,80.50
2018-11-28T15:21:03.596Z,80.20
2018-11-28T15:23:32.090Z,80.40
2018-11-28T15:26:00.780Z,80.40
2018-11-28T15:28:29.156Z,80.10
2018-11-28T15:30:57.688Z,80.40
2018-11-28T15:33:26.027Z,80.00
2018-11-28T15:35:54.397Z,79.40
2018-11-28T15:38:23.157Z,79.50
2018-11-28T15:40:52.594Z,78.70
2018-11-28T15:43:21.126Z,78.80
2018-11-28T15:45:50.387Z,78.90
2018-11-28T15:48:18.845Z,79.20
2018-11-28T15:50:47.312Z,79.70
2018-11-28T15:53:15.673Z,79.90
2018-11-28T15:55:44.216Z,80.30
2018-11-28T15:58:12.599Z,80.20
2018-11-28T16:00:40.921Z,80.70
2018-11-28T16:03:09.337Z,80.30
2018-11-28T16:05:39.626Z,80.30
2018-11-28T16:08:07.989Z,80.30
2018-11-28T16:10:43.346Z,80.40
2018-11-28T16:13:15.040Z,80.10
2018-11-28T16:15:54.402Z,79.50
2018-11-28T16:18:23.160Z,80.40
2018-11-28T16:20:51.656Z,79.70
2018-11-28T16:23:19.985Z,79.00
2018-11-28T16:25:48.326Z,79.00
2018-11-28T16:28:16.834Z,79.20
2018-11-28T16:30:45.293Z,78.80
2018-11-28T16:33:13.658Z,79.00
2018-11-28T16:35:42.048Z,78.90
2018-11-28T16:38:10.366Z,79.20
2018-11-28T16:40:38.612Z,79.20
2018-11-28T16:43:06.853Z,79.40
2018-11-28T16:45:35.284Z,79.00
2018-11-28T16:48:03.750Z,79.30
2018-11-28T16:50:32.253Z,79.40
2018-11-28T16:53:00.643Z,79.20
2018-11-28T16:55:29.314Z,79.10
2018-11-28T16:57:58.000Z,79.00
2018-11-28T17:00:28.910Z,79.50
2018-11-28T17:02:57.633Z,79.80
2018-11-28T17:05:27.357Z,79.90
2018-11-28T17:07:55.937Z,79.50
2018-11-28T17:10:26.325Z,79.60
2018-11-28T17:12:55.239Z,80.20
2018-11-28T17:15:23.621Z,80.90
2018-11-28T17:17:52.031Z,80.20
2018-11-28T17:20:21.375Z,80.40
2018-11-28T17:22:50.753Z,80.30
2018-11-28T17:25:21.454Z,79.80
2018-11-28T17:27:49.759Z,79.50
2018-11-28T17:30:22.436Z,79.40
2018-11-28T17:32:50.918Z,79.80
2018-11-28T17:35:19.750Z,80.00
2018-11-28T17:37:48.679Z,80.10
2018-11-28T17:40:20.346Z,80.20
2018-11-28T17:42:50.937Z,80.30
2018-11-28T17:45:19.520Z,80.40
2018-11-28T17:47:48.458Z,80.30
2018-11-28T17:50:19.849Z,80.30
2018-11-28T17:52:51.164Z,80.10
2018-11-28T17:55:19.570Z,80.30
2018-11-28T18:00:22.817Z,80.90
2018-11-28T18:02:51.303Z,80.30
2018-11-28T18:05:19.671Z,80.00
2018-11-28T18:07:48.126Z,79.50
2018-11-28T18:10:17.680Z,79.70
2018-11-28T18:12:57.321Z,80.40
2018-11-28T18:15:25.642Z,80.40
2018-11-28T18:17:55.634Z,80.40
2018-11-28T18:20:23.954Z,80.20
2018-11-28T18:22:52.424Z,81.00
2018-11-28T18:25:21.187Z,79.80
2018-11-28T18:27:49.967Z,80.20
2018-11-28T18:30:17.993Z,80.50
2018-11-28T18:32:46.452Z,80.80
2018-11-28T18:35:14.733Z,80.90
2018-11-28T18:37:43.044Z,81.60
2018-11-28T18:40:12.794Z,81.80
2018-11-28T18:42:42.685Z,81.00
2018-11-28T18:45:18.472Z,80.40
2018-11-28T18:47:46.508Z,80.20
2018-11-28T18:50:15.050Z,81.80
2018-11-28T18:52:43.426Z,80.50
2018-11-28T18:55:16.723Z,81.20
2018-11-28T18:57:43.317Z,81.40
2018-11-28T19:00:17.854Z,81.70
2018-11-28T19:02:46.117Z,81.20
2018-11-28T19:05:14.601Z,81.50
2018-11-28T19:07:43.016Z,80.90
2018-11-28T19:10:13.535Z,80.40
2018-11-28T19:12:41.875Z,80.20
2018-11-28T19:15:13.433Z,81.50
2018-11-28T19:17:42.023Z,81.30
2018-11-28T19:20:11.713Z,80.90
2018-11-28T19:22:40.147Z,80.40
2018-11-28T19:25:14.429Z,80.40
2018-11-28T19:27:42.956Z,80.40
2018-11-28T19:30:12.570Z,80.30
2018-11-28T19:32:41.454Z,81.20
2018-11-28T19:35:10.760Z,81.50
2018-11-28T19:37:40.181Z,81.20
2018-11-28T19:40:11.339Z,80.90
2018-11-28T19:42:40.359Z,80.70
2018-11-28T19:45:10.027Z,80.50
2018-11-28T19:47:38.506Z,80.80
2018-11-28T19:50:18.347Z,81.30
2018-11-28T19:52:47.062Z,80.90
2018-11-28T19:55:16.009Z,81.20
2018-11-28T19:57:45.122Z,81.50
2018-11-28T20:00:15.562Z,81.80
2018-11-28T20:02:44.588Z,82.00
2018-11-28T20:05:13.466Z,82.80
2018-11-28T20:07:45.536Z,82.70
2018-11-28T20:10:16.288Z,82.50
2018-11-28T20:12:44.757Z,82.20
2018-11-28T20:15:18.989Z,82.40
2018-11-28T20:17:47.465Z,82.20
2018-11-28T20:20:16.799Z,81.80
2018-11-28T20:22:45.387Z,81.70
2018-11-28T20:25:16.397Z,81.80
2018-11-28T20:27:46.071Z,81.30
2018-11-28T20:30:16.146Z,81.30
2018-11-28T20:32:44.617Z,81.40
2018-11-28T20:35:13.103Z,81.70
2018-11-28T20:37:41.832Z,81.40
2018-11-28T20:40:12.799Z,81.10
2018-11-28T20:42:42.958Z,81.50
2018-11-28T20:45:12.755Z,81.00
2018-11-28T20:47:41.155Z,81.10
2018-11-28T20:50:13.274Z,81.30
2018-11-28T20:52:42.903Z,81.60
2018-11-28T20:55:11.384Z,81.80
2018-11-28T20:57:39.734Z,81.30
2018-11-28T21:00:14.056Z,81.10
2018-11-28T21:02:42.526Z,80.80
2018-11-28T21:05:11.013Z,80.20
2018-11-28T21:07:39.987Z,80.20
2018-11-28T21:10:17.308Z,81.00
2018-11-28T21:12:45.694Z,81.90
2018-11-28T21:15:15.034Z,81.50
2018-11-28T21:17:45.378Z,81.30
2018-11-28T21:20:15.853Z,81.60
2018-11-28T21:22:45.661Z,82.10
2018-11-28T21:25:13.974Z,82.50
2018-11-28T21:27:42.930Z,81.80
2018-11-28T21:30:14.685Z,81.20
2018-11-28T21:32:43.751Z,81.50
2018-11-28T21:35:14.502Z,81.20
2018-11-28T21:37:42.873Z,80.80
2018-11-28T21:40:11.599Z,80.20
2018-11-28T21:42:39.901Z,80.30
2018-11-28T21:45:12.836Z,80.20
2018-11-28T21:47:41.705Z,80.80
2018-11-28T21:50:13.993Z,80.30
2018-11-28T21:52:42.950Z,80.80
2018-11-28T21:55:12.439Z,81.10
2018-11-28T21:57:40.938Z,81.40
2018-11-28T22:00:16.687Z,80.70
2018-11-28T22:02:44.933Z,80.30
2018-11-28T22:05:14.213Z,80.30
2018-11-28T22:07:42.624Z,80.30
2018-11-28T22:10:14.865Z,79.70
2018-11-28T22:12:43.191Z,79.70
2018-11-28T22:15:14.311Z,80.20
2018-11-28T22:17:43.887Z,80.90
2018-11-28T22:20:13.612Z,81.60
2018-11-28T22:22:41.982Z,81.70
2018-11-28T22:25:19.112Z,80.90
2018-11-28T22:27:47.581Z,80.30
2018-11-28T22:30:20.131Z,80.50
2018-11-28T22:32:48.549Z,80.30
2018-11-28T22:35:17.457Z,80.30
2018-11-28T22:37:45.834Z,80.50
2018-11-28T22:40:31.041Z,80.90
2018-11-28T22:42:59.354Z,80.60
2018-11-28T22:45:32.577Z,80.60
2018-11-28T22:48:02.716Z,80.90
2018-11-28T22:50:31.987Z,80.70
2018-11-28T22:53:00.492Z,80.60
2018-11-28T22:55:29.275Z,80.70
2018-11-28T22:57:57.637Z,81.20
2018-11-28T23:00:31.697Z,81.00
2018-11-28T23:03:02.470Z,81.50
2018-11-28T23:05:35.012Z,80.60
2018-11-28T23:08:04.537Z,80.30
2018-11-28T23:10:32.868Z,80.10
2018-11-28T23:13:01.156Z,80.00
2018-11-28T23:15:30.073Z,80.10
2018-11-28T23:17:59.149Z,80.60
2018-11-28T23:20:27.435Z,80.90
2018-11-28T23:22:55.918Z,80.20
2018-11-28T23:25:24.419Z,80.10
2018-11-28T23:27:53.240Z,80.10
2018-11-28T23:30:22.300Z,80.60
2018-11-28T23:32:52.430Z,80.50
2018-11-28T23:35:20.773Z,80.60
2018-11-28T23:37:49.530Z,80.70
2018-11-28T23:40:23.734Z,81.10
2018-11-28T23:42:52.604Z,81.50
2018-11-28T23:45:21.188Z,80.30
2018-11-28T23:47:49.728Z,80.20
2018-11-28T23:50:18.688Z,80.10
2018-11-28T23:52:47.788Z,80.10
2018-11-28T23:55:18.108Z,80.30
2018-11-28T23:57:46.514Z,80.00
